Time;durP1;ratioP1;P1;durP2;ratioP2;P2;SDS_P1;SDS_P2;PMS_P1;PMS_P2;Temp;Humidity;BMP_temperature;BMP_pressure;BME280_temperature;BME280_humidity;BME280_pressure;Samples;Min_cycle;Max_cycle;Signal;HPM_P1;HPM_P2
2022/02/25 00:00:59;;;;;;;;;;;;;;;17.37;58.39;100660.16;2057969;28;19932;-47
2022/02/25 00:01:59;;;;;;;;;;;;;;;17.37;58.13;100660.16;2057293;28;20773;-46
2022/02/25 00:03:00;;;;;;;;;;;;;;;17.37;58.00;100660.16;2061473;28;20083;-47
2022/02/25 00:04:01;;;;;;;;;;;;;;;17.36;58.24;100663.84;2056144;28;19925;-49
2022/02/25 00:05:01;;;;;;;;;;;;;;;17.37;58.37;100668.34;2058939;28;19930;-48
2022/02/25 00:06:03;;;;;;;;;;;;;;;17.37;58.22;100668.34;2058136;28;20090;-48
2022/02/25 00:07:04;;;;;;;;;;;;;;;17.36;58.28;100670.16;2058878;28;20409;-47
2022/02/25 00:08:04;;;;;;;;;;;;;;;17.35;58.29;100664.88;2058605;28;19921;-48
2022/02/25 00:09:07;;;;;;;;;;;;;;;17.37;58.11;100673.78;2057162;28;19937;-47
2022/02/25 00:10:08;;;;;;;;;;;;;;;17.37;57.95;100668.34;2062993;28;20459;-50
2022/02/25 00:11:08;;;;;;;;;;;;;;;17.38;58.10;100678.22;2055528;28;20178;-49
2022/02/25 00:12:08;;;;;;;;;;;;;;;17.39;58.04;100669.06;2058332;28;20328;-47
2022/02/25 00:13:09;;;;;;;;;;;;;;;17.39;58.09;100676.38;2050722;28;19941;-48
2022/02/25 00:14:09;;;;;;;;;;;;;;;17.39;58.22;100671.78;2046450;28;19922;-48
2022/02/25 00:15:09;;;;;;;;;;;;;;;17.40;58.08;100673.53;2059417;28;20034;-48
2022/02/25 00:16:09;;;;;;;;;;;;;;;17.40;57.93;100673.53;2049543;28;19952;-49
2022/02/25 00:17:10;;;;;;;;;;;;;;;17.40;57.81;100670.81;2049425;28;19980;-48
2022/02/25 00:18:10;;;;;;;;;;;;;;;17.42;57.75;100671.56;2057255;28;19957;-50
2022/02/25 00:19:11;;;;;;;;;;;;;;;17.41;58.02;100672.53;2058531;28;19936;-48
2022/02/25 00:20:12;;;;;;;;;;;;;;;17.42;57.89;100671.56;2058215;28;19925;-50
2022/02/25 00:21:12;;;;;;;;;;;;;;;17.43;57.86;100667.81;2061022;28;20318;-49
2022/02/25 00:22:12;;;;;;;;;;;;;;;17.43;57.80;100669.69;2058316;28;19922;-47
2022/02/25 00:23:13;;;;;;;;;;;;;;;17.42;57.72;100667.94;2057607;28;20279;-47
2022/02/25 00:24:13;;;;;;;;;;;;;;;17.42;58.01;100670.66;2057896;28;19944;-48
2022/02/25 00:25:14;;;;;;;;;;;;;;;17.42;57.91;100666.09;2059658;28;19932;-48
2022/02/25 00:26:14;;;;;;;;;;;;;;;17.42;57.87;100666.09;2062844;28;20739;-47
2022/02/25 00:27:14;;;;;;;;;;;;;;;17.42;57.78;100671.56;2056628;28;19965;-48
2022/02/25 00:28:15;;;;;;;;;;;;;;;17.42;57.92;100670.66;2059730;28;20186;-50
2022/02/25 00:29:15;;;;;;;;;;;;;;;17.41;57.65;100669.81;2064539;28;20001;-47
2022/02/25 00:30:16;;;;;;;;;;;;;;;17.43;57.86;100670.53;2057837;28;19921;-48
2022/02/25 00:31:16;;;;;;;;;;;;;;;17.41;57.63;100664.34;2059711;28;20256;-48
2022/02/25 00:32:16;;;;;;;;;;;;;;;17.43;57.89;100673.28;2058553;28;19921;-48
2022/02/25 00:33:17;;;;;;;;;;;;;;;17.43;57.77;100661.50;2060042;28;19921;-48
2022/02/25 00:34:17;;;;;;;;;;;;;;;17.42;57.82;100660.66;2063262;28;19957;-50
2022/02/25 00:35:18;;;;;;;;;;;;;;;17.42;57.93;100668.81;2051563;28;19929;-47
2022/02/25 00:36:18;;;;;;;;;;;;;;;17.40;57.74;100665.34;2052004;28;20067;-48
2022/02/25 00:37:18;;;;;;;;;;;;;;;17.41;57.91;100658.91;2053763;28;19948;-48
2022/02/25 00:38:19;;;;;;;;;;;;;;;17.41;57.86;100668.94;2051768;28;19925;-47
2022/02/25 00:39:19;;;;;;;;;;;;;;;17.41;57.98;100668.94;2061381;28;20638;-51
2022/02/25 00:40:21;;;;;;;;;;;;;;;17.40;57.96;100670.81;2057578;28;19930;-47
2022/02/25 00:41:21;;;;;;;;;;;;;;;17.41;57.80;100671.66;2056773;28;20235;-47
2022/02/25 00:42:22;;;;;;;;;;;;;;;17.39;58.01;100676.38;2058537;28;20248;-48
2022/02/25 00:43:22;;;;;;;;;;;;;;;17.39;57.87;100673.63;2058418;28;20018;-47
2022/02/25 00:44:22;;;;;;;;;;;;;;;17.38;57.85;100666.47;2060698;28;19948;-47
2022/02/25 00:45:23;;;;;;;;;;;;;;;17.36;57.86;100667.44;2061917;28;19914;-49
2022/02/25 00:46:23;;;;;;;;;;;;;;;17.36;57.70;100672.91;2061772;28;19922;-50
2022/02/25 00:47:23;;;;;;;;;;;;;;;17.37;57.83;100668.34;2061305;28;19917;-47
2022/02/25 00:48:24;;;;;;;;;;;;;;;17.35;58.06;100668.44;2060884;28;20475;-48
2022/02/25 00:49:24;;;;;;;;;;;;;;;17.36;57.93;100666.59;2053999;28;19915;-47
2022/02/25 00:50:24;;;;;;;;;;;;;;;17.35;57.91;100664.88;2051018;28;19994;-47
2022/02/25 00:51:25;;;;;;;;;;;;;;;17.34;57.98;100664.00;2062429;28;19923;-48
2022/02/25 00:52:25;;;;;;;;;;;;;;;17.34;58.16;100674.91;2059694;28;20796;-49
2022/02/25 00:53:25;;;;;;;;;;;;;;;17.35;58.10;100668.44;2057476;28;19921;-48
2022/02/25 00:54:26;;;;;;;;;;;;;;;17.34;57.92;100669.44;2062516;28;19949;-47
2022/02/25 00:55:26;;;;;;;;;;;;;;;17.34;58.06;100668.56;2061018;28;19928;-51
2022/02/25 00:56:26;;;;;;;;;;;;;;;17.34;58.10;100674.00;2061022;28;19913;-48
2022/02/25 00:57:27;;;;;;;;;;;;;;;17.34;57.90;100674.00;2058384;28;19922;-48
2022/02/25 00:58:27;;;;;;;;;;;;;;;17.34;58.03;100672.19;2061080;28;19922;-47
2022/02/25 00:59:27;;;;;;;;;;;;;;;17.34;57.90;100671.28;2061058;28;19929;-48
2022/02/25 01:00:28;;;;;;;;;;;;;;;17.34;58.03;100672.19;2060739;28;19914;-47
2022/02/25 01:01:28;;;;;;;;;;;;;;;17.34;57.95;100668.56;2063289;28;20220;-47
2022/02/25 01:02:28;;;;;;;;;;;;;;;17.33;57.99;100670.44;2060820;28;19918;-47
2022/02/25 01:03:29;;;;;;;;;;;;;;;17.34;58.01;100669.44;2059106;28;19917;-48
2022/02/25 01:04:29;;;;;;;;;;;;;;;17.34;58.09;100672.19;2056484;28;19921;-48
2022/02/25 01:05:30;;;;;;;;;;;;;;;17.33;57.89;100664.97;2061872;28;19936;-48
2022/02/25 01:06:30;;;;;;;;;;;;;;;17.34;57.90;100660.38;2059550;28;19957;-47
2022/02/25 01:07:30;;;;;;;;;;;;;;;17.33;57.93;100661.38;2060365;28;19973;-48
2022/02/25 01:08:30;;;;;;;;;;;;;;;17.32;57.96;100659.63;2061677;28;19930;-47
2022/02/25 01:09:31;;;;;;;;;;;;;;;17.33;57.91;100664.13;2059906;28;20002;-48
2022/02/25 01:10:31;;;;;;;;;;;;;;;17.31;57.98;100666.09;2060458;28;19932;-49
2022/02/25 01:11:32;;;;;;;;;;;;;;;17.31;57.99;100660.66;2061321;28;19928;-48
2022/02/25 01:12:32;;;;;;;;;;;;;;;17.31;57.94;100663.38;2049743;28;19921;-48
2022/02/25 01:13:33;;;;;;;;;;;;;;;17.30;58.17;100661.66;2051242;28;19925;-48
2022/02/25 01:14:34;;;;;;;;;;;;;;;17.31;57.87;100663.38;2059158;28;19932;-48
2022/02/25 01:15:34;;;;;;;;;;;;;;;17.30;58.07;100661.66;2058575;28;20361;-50
2022/02/25 01:16:34;;;;;;;;;;;;;;;17.30;57.96;100658.94;2059079;28;19926;-48
2022/02/25 01:17:35;;;;;;;;;;;;;;;17.29;58.12;100660.75;2061952;28;19933;-48
2022/02/25 01:18:35;;;;;;;;;;;;;;;17.30;57.97;100667.09;2061534;28;19925;-47
2022/02/25 01:19:35;;;;;;;;;;;;;;;17.30;57.80;100658.94;2062889;28;19929;-48
2022/02/25 01:20:36;;;;;;;;;;;;;;;17.29;58.08;100660.75;2059795;28;19933;-47
2022/02/25 01:21:36;;;;;;;;;;;;;;;17.30;57.91;100662.50;2060333;28;19925;-49
2022/02/25 01:22:36;;;;;;;;;;;;;;;17.30;58.14;100667.09;2062233;28;20267;-47
2022/02/25 01:23:37;;;;;;;;;;;;;;;17.30;58.05;100656.19;2056862;28;19925;-48
2022/02/25 01:24:37;;;;;;;;;;;;;;;17.30;58.12;100665.22;2061360;28;19971;-47
2022/02/25 01:25:38;;;;;;;;;;;;;;;17.31;57.99;100663.38;2060869;28;19992;-48
2022/02/25 01:26:38;;;;;;;;;;;;;;;17.32;57.89;100665.09;2059218;28;20028;-48
2022/02/25 01:27:39;;;;;;;;;;;;;;;17.31;58.15;100663.38;2054396;28;20131;-48
2022/02/25 01:28:39;;;;;;;;;;;;;;;17.31;58.17;100660.66;2048136;28;19918;-47
2022/02/25 01:29:40;;;;;;;;;;;;;;;17.31;58.08;100666.09;2054985;28;19932;-48
2022/02/25 01:30:40;;;;;;;;;;;;;;;17.32;58.04;100667.81;2055028;28;19929;-47
2022/02/25 01:31:43;;;;;;;;;;;;;;;17.33;57.89;100664.13;2059190;28;20273;-47
2022/02/25 01:32:43;;;;;;;;;;;;;;;17.34;57.84;100660.38;2061218;28;19928;-47
2022/02/25 01:33:44;;;;;;;;;;;;;;;17.34;57.74;100660.38;2061686;28;19979;-47
2022/02/25 01:34:44;;;;;;;;;;;;;;;17.34;57.76;100665.84;2058687;28;19925;-48
2022/02/25 01:35:45;;;;;;;;;;;;;;;17.35;57.98;100662.13;2060242;28;19957;-48
2022/02/25 01:36:45;;;;;;;;;;;;;;;17.36;57.96;100663.84;2059024;28;19921;-47
2022/02/25 01:37:45;;;;;;;;;;;;;;;17.37;57.74;100662.88;2059537;28;19921;-47
2022/02/25 01:38:46;;;;;;;;;;;;;;;17.36;57.92;100666.59;2059648;28;19968;-47
2022/02/25 01:39:46;;;;;;;;;;;;;;;17.35;57.81;100667.59;2057816;28;20019;-48
2022/02/25 01:40:49;;;;;;;;;;;;;;;17.36;57.66;100666.59;2062514;28;19948;-47
2022/02/25 01:41:49;;;;;;;;;;;;;;;17.36;57.76;100661.13;2056251;28;19928;-48
2022/02/25 01:42:51;;;;;;;;;;;;;;;17.36;57.94;100669.31;2059948;28;19964;-47
2022/02/25 01:44:08;;;;;;;;;;;;;;;17.35;57.78;100664.88;2059788;28;19983;-48
2022/02/25 01:45:09;;;;;;;;;;;;;;;17.34;57.82;100664.00;2059580;28;19924;-48
2022/02/25 01:46:09;;;;;;;;;;;;;;;17.34;57.78;100663.13;2060215;28;20013;-48
2022/02/25 01:47:11;;;;;;;;;;;;;;;17.33;57.95;100661.38;2058989;28;19960;-50
2022/02/25 01:48:11;;;;;;;;;;;;;;;17.34;57.79;100657.66;2059909;28;20616;-48
2022/02/25 01:49:11;;;;;;;;;;;;;;;17.34;57.73;100668.56;2059813;28;20004;-48
2022/02/25 01:50:12;;;;;;;;;;;;;;;17.31;57.74;100666.94;2057448;28;19918;-48
2022/02/25 01:51:13;;;;;;;;;;;;;;;17.32;57.79;100662.38;2050767;28;19928;-48
2022/02/25 01:52:15;;;;;;;;;;;;;;;17.29;57.94;100655.31;2051001;28;19925;-48
2022/02/25 01:53:15;;;;;;;;;;;;;;;17.31;57.77;100657.91;2058924;28;19918;-49
2022/02/25 01:54:16;;;;;;;;;;;;;;;17.30;58.02;100658.94;2052659;28;19929;-47
2022/02/25 01:55:16;;;;;;;;;;;;;;;17.31;57.76;100657.91;2048759;28;20004;-48
2022/02/25 01:56:16;;;;;;;;;;;;;;;17.30;57.94;100659.78;2061003;28;19921;-50
2022/02/25 01:57:17;;;;;;;;;;;;;;;17.31;57.99;100660.66;2054658;28;19960;-48
2022/02/25 01:58:17;;;;;;;;;;;;;;;17.31;57.98;100663.38;2058705;28;19920;-48
2022/02/25 01:59:18;;;;;;;;;;;;;;;17.30;58.01;100656.19;2060717;28;19926;-48
2022/02/25 02:00:18;;;;;;;;;;;;;;;17.31;58.01;100663.38;2059285;28;19928;-48
2022/02/25 02:01:18;;;;;;;;;;;;;;;17.29;57.76;100658.03;2062862;28;19920;-48
2022/02/25 02:02:18;;;;;;;;;;;;;;;17.30;57.93;100661.66;2056837;28;19921;-48
2022/02/25 02:03:19;;;;;;;;;;;;;;;17.30;57.99;100667.09;2059087;28;19928;-49
2022/02/25 02:04:19;;;;;;;;;;;;;;;17.29;58.09;100659.91;2058225;28;20334;-48
2022/02/25 02:05:20;;;;;;;;;;;;;;;17.31;58.01;100666.09;2061054;28;20360;-48
2022/02/25 02:06:21;;;;;;;;;;;;;;;17.29;57.72;100655.31;2057922;28;20748;-49
2022/02/25 02:07:21;;;;;;;;;;;;;;;17.29;58.02;100665.34;2058651;28;19928;-47
2022/02/25 02:08:22;;;;;;;;;;;;;;;17.29;57.87;100662.63;2059567;28;19996;-47
2022/02/25 02:09:23;;;;;;;;;;;;;;;17.28;57.81;100660.91;2059938;28;20535;-48
2022/02/25 02:10:23;;;;;;;;;;;;;;;17.28;57.96;100658.19;2051498;28;20349;-48
2022/02/25 02:11:34;;;;;;;;;;;;;;;17.28;58.01;100652.72;2049479;28;19953;-47
2022/02/25 02:12:34;;;;;;;;;;;;;;;17.26;58.09;100647.38;2055444;28;19972;-49
2022/02/25 02:13:35;;;;;;;;;;;;;;;17.27;58.11;100656.41;2062573;28;20448;-48
2022/02/25 02:14:35;;;;;;;;;;;;;;;17.26;57.95;100652.84;2057441;28;19925;-48
2022/02/25 02:15:35;;;;;;;;;;;;;;;17.27;58.05;100656.41;2059064;28;19914;-47
2022/02/25 02:16:35;;;;;;;;;;;;;;;17.25;58.01;100651.13;2059548;28;20955;-48
2022/02/25 02:17:36;;;;;;;;;;;;;;;17.26;58.05;100663.75;2058307;28;20008;-48
2022/02/25 02:18:36;;;;;;;;;;;;;;;17.25;58.00;100658.44;2058258;28;19956;-48
2022/02/25 02:19:37;;;;;;;;;;;;;;;17.25;58.13;100653.84;2059799;28;19943;-47
2022/02/25 02:20:37;;;;;;;;;;;;;;;17.25;58.20;100656.56;2056309;28;19917;-47
2022/02/25 02:21:42;;;;;;;;;;;;;;;17.25;58.14;100659.28;2057847;28;20244;-48
2022/02/25 02:22:42;;;;;;;;;;;;;;;17.25;58.16;100658.44;2053524;28;19917;-48
2022/02/25 02:23:43;;;;;;;;;;;;;;;17.25;57.98;100655.72;2057312;28;19940;-47
2022/02/25 02:24:43;;;;;;;;;;;;;;;17.25;58.16;100658.44;2059718;28;19921;-48
2022/02/25 02:25:43;;;;;;;;;;;;;;;17.25;58.09;100652.97;2060557;28;19917;-48
2022/02/25 02:26:44;;;;;;;;;;;;;;;17.24;58.11;100656.69;2058756;28;19917;-48
2022/02/25 02:29:04;;;;;;;;;;;;;;;17.24;58.23;100654.81;2057186;28;19925;-47
2022/02/25 02:30:05;;;;;;;;;;;;;;;17.24;58.06;100645.78;2058687;28;19926;-48
2022/02/25 02:31:05;;;;;;;;;;;;;;;17.25;58.21;100647.53;2060210;28;20016;-48
2022/02/25 02:32:06;;;;;;;;;;;;;;;17.25;58.14;100652.97;2061901;28;20348;-47
2022/02/25 02:33:06;;;;;;;;;;;;;;;17.24;58.25;100654.81;2057511;28;20386;-47
2022/02/25 02:34:09;;;;;;;;;;;;;;;17.24;58.06;100651.22;2060587;28;20074;-48
2022/02/25 02:35:10;;;;;;;;;;;;;;;17.23;57.91;100650.38;2056792;28;20411;-48
2022/02/25 02:36:10;;;;;;;;;;;;;;;17.24;58.05;100651.22;2058506;28;20327;-48
2022/02/25 02:37:10;;;;;;;;;;;;;;;17.23;58.11;100661.28;2058403;28;19957;-47
2022/02/25 02:38:11;;;;;;;;;;;;;;;17.23;58.16;100661.28;2059682;28;19921;-47
2022/02/25 02:39:12;;;;;;;;;;;;;;;17.24;57.97;100662.13;2055868;28;19925;-47
2022/02/25 02:40:12;;;;;;;;;;;;;;;17.23;57.83;100657.69;2059270;28;19973;-47
2022/02/25 02:41:12;;;;;;;;;;;;;;;17.24;58.02;100656.69;2053870;28;20451;-48
2022/02/25 02:42:13;;;;;;;;;;;;;;;17.23;57.97;100658.53;2061079;28;20453;-48
2022/02/25 02:43:13;;;;;;;;;;;;;;;17.23;58.17;100664.00;2058414;28;20003;-48
2022/02/25 02:44:13;;;;;;;;;;;;;;;17.23;57.90;100654.97;2058233;28;19929;-47
2022/02/25 02:45:15;;;;;;;;;;;;;;;17.24;58.04;100660.25;2056995;28;20000;-48
2022/02/25 02:46:15;;;;;;;;;;;;;;;17.25;57.88;100659.28;2059880;28;19925;-47
2022/02/25 02:47:15;;;;;;;;;;;;;;;17.26;57.96;100655.56;2058211;28;19928;-47
2022/02/25 02:48:16;;;;;;;;;;;;;;;17.27;58.05;100651.88;2059177;28;20012;-47
2022/02/25 02:49:16;;;;;;;;;;;;;;;17.28;58.21;100658.19;2059235;28;19932;-49
2022/02/25 02:50:16;;;;;;;;;;;;;;;17.29;57.91;100657.16;2050070;28;19922;-47
2022/02/25 02:51:17;;;;;;;;;;;;;;;17.29;57.89;100654.44;2049333;28;19953;-47
2022/02/25 02:52:17;;;;;;;;;;;;;;;17.30;57.82;100656.19;2056228;28;19956;-46
2022/02/25 02:53:17;;;;;;;;;;;;;;;17.30;57.99;100661.66;2058835;28;19921;-49
2022/02/25 02:54:18;;;;;;;;;;;;;;;17.30;57.87;100651.59;2057852;28;20235;-47
2022/02/25 02:55:18;;;;;;;;;;;;;;;17.30;57.90;100653.47;2059609;28;20371;-47
2022/02/25 02:56:18;;;;;;;;;;;;;;;17.32;57.91;100659.63;2057074;28;19923;-48
2022/02/25 02:57:20;;;;;;;;;;;;;;;17.31;57.84;100655.19;2061564;28;19913;-47
2022/02/25 02:58:21;;;;;;;;;;;;;;;17.32;57.98;100654.19;2063337;28;19920;-49
2022/02/25 02:59:21;;;;;;;;;;;;;;;17.31;57.98;100663.38;2055590;28;19928;-47
2022/02/25 03:00:21;;;;;;;;;;;;;;;17.31;57.89;100657.91;2054550;28;19928;-47
2022/02/25 03:01:25;;;;;;;;;;;;;;;17.30;58.10;100658.94;2051769;28;19910;-49
2022/02/25 03:02:26;;;;;;;;;;;;;;;17.29;57.85;100659.91;2052927;28;20024;-50
2022/02/25 03:03:26;;;;;;;;;;;;;;;17.29;57.85;100659.91;2058688;28;20418;-47
2022/02/25 03:04:27;;;;;;;;;;;;;;;17.29;57.91;100665.34;2061424;28;20217;-47
2022/02/25 03:05:27;;;;;;;;;;;;;;;17.28;57.71;100661.75;2056137;28;19909;-47
2022/02/25 03:06:28;;;;;;;;;;;;;;;17.28;58.09;100663.63;2058352;28;19918;-48
2022/02/25 03:07:28;;;;;;;;;;;;;;;17.26;57.94;100661.00;2058378;28;19921;-48
2022/02/25 03:08:29;;;;;;;;;;;;;;;17.27;58.05;100664.59;2055348;28;19913;-47
2022/02/25 03:09:29;;;;;;;;;;;;;;;17.27;58.21;100664.59;2057955;28;19929;-48
2022/02/25 03:10:29;;;;;;;;;;;;;;;17.26;58.09;100661.00;2060016;28;20233;-47
2022/02/25 03:11:30;;;;;;;;;;;;;;;17.25;58.10;100664.75;2053532;28;19991;-47
2022/02/25 03:12:30;;;;;;;;;;;;;;;17.25;57.98;100664.75;2057919;28;20224;-48
2022/02/25 03:13:30;;;;;;;;;;;;;;;17.26;58.09;100660.16;2057882;28;19947;-49
2022/02/25 03:14:31;;;;;;;;;;;;;;;17.25;57.99;100669.34;2058656;28;19922;-48
2022/02/25 03:15:32;;;;;;;;;;;;;;;17.23;58.01;100663.13;2057774;28;19922;-47
2022/02/25 03:16:32;;;;;;;;;;;;;;;17.23;58.14;100666.72;2054181;28;19996;-48
2022/02/25 03:17:32;;;;;;;;;;;;;;;17.24;58.28;100665.72;2062771;28;20012;-47
2022/02/25 03:18:33;;;;;;;;;;;;;;;17.24;58.05;100662.13;2055498;28;19918;-49
2022/02/25 03:19:35;;;;;;;;;;;;;;;17.24;58.07;100665.72;2057994;28;19924;-46
2022/02/25 03:20:35;;;;;;;;;;;;;;;17.23;57.82;100657.69;2058801;28;19973;-46
2022/02/25 03:21:36;;;;;;;;;;;;;;;17.25;58.15;100669.34;2060245;28;20437;-49
2022/02/25 03:22:36;;;;;;;;;;;;;;;17.25;57.98;100661.16;2059012;28;19925;-47
2022/02/25 03:23:37;;;;;;;;;;;;;;;17.24;58.15;100662.13;2056053;28;19918;-47
2022/02/25 03:24:37;;;;;;;;;;;;;;;17.23;57.92;100655.81;2056541;28;19939;-47
2022/02/25 03:25:38;;;;;;;;;;;;;;;17.24;58.07;100662.13;2057723;28;19949;-47
2022/02/25 03:26:38;;;;;;;;;;;;;;;17.24;57.93;100651.22;2058787;28;19921;-48
2022/02/25 03:27:39;;;;;;;;;;;;;;;17.23;58.22;100649.50;2060350;28;19918;-48
2022/02/25 03:28:39;;;;;;;;;;;;;;;17.23;58.10;100650.38;2057809;28;19917;-48
2022/02/25 03:29:40;;;;;;;;;;;;;;;17.23;57.89;100661.28;2057272;28;20008;-48
2022/02/25 03:30:40;;;;;;;;;;;;;;;17.22;58.10;100653.22;2056800;28;19917;-50
2022/02/25 03:31:41;;;;;;;;;;;;;;;17.22;58.12;100654.09;2050782;28;19922;-47
2022/02/25 03:32:45;;;;;;;;;;;;;;;17.22;57.86;100656.81;2049405;28;19926;-47
2022/02/25 03:33:45;;;;;;;;;;;;;;;17.22;58.00;100658.66;2055198;28;19993;-47
2022/02/25 03:34:45;;;;;;;;;;;;;;;17.23;58.05;100660.41;2057994;28;21046;-48
2022/02/25 03:35:45;;;;;;;;;;;;;;;17.20;58.15;100657.91;2058411;28;19928;-49
2022/02/25 03:36:46;;;;;;;;;;;;;;;17.21;58.12;100670.56;2055099;28;19926;-47
2022/02/25 03:37:46;;;;;;;;;;;;;;;17.21;57.99;100659.66;2059507;28;19932;-47
2022/02/25 03:38:47;;;;;;;;;;;;;;;17.21;57.88;100651.50;2054887;28;20845;-47
2022/02/25 03:39:47;;;;;;;;;;;;;;;17.21;58.17;100665.97;2058193;28;20659;-47
2022/02/25 03:40:47;;;;;;;;;;;;;;;17.21;58.11;100662.38;2053326;28;20278;-48
2022/02/25 03:41:48;;;;;;;;;;;;;;;17.20;57.93;100660.63;2056657;28;19925;-48
2022/02/25 03:42:48;;;;;;;;;;;;;;;17.21;58.10;100656.94;2057972;28;19921;-48
2022/02/25 03:43:48;;;;;;;;;;;;;;;17.22;57.98;100664.09;2060033;28;20287;-48
2022/02/25 03:44:49;;;;;;;;;;;;;;;17.22;58.07;100658.66;2059551;28;19917;-49
2022/02/25 03:45:49;;;;;;;;;;;;;;;17.22;57.96;100655.94;2058429;28;20011;-49
2022/02/25 03:46:49;;;;;;;;;;;;;;;17.24;58.16;100664.84;2056942;28;20159;-47
2022/02/25 03:47:50;;;;;;;;;;;;;;;17.26;58.03;100665.59;2062428;28;20316;-47
2022/02/25 03:48:50;;;;;;;;;;;;;;;17.27;58.11;100661.88;2055782;28;19936;-48
2022/02/25 03:49:50;;;;;;;;;;;;;;;17.27;58.00;100670.06;2059632;28;19961;-48
2022/02/25 03:50:51;;;;;;;;;;;;;;;17.28;57.95;100666.34;2056031;28;19963;-50
2022/02/25 03:51:51;;;;;;;;;;;;;;;17.30;58.09;100664.38;2057908;28;20443;-47
2022/02/25 03:52:51;;;;;;;;;;;;;;;17.30;57.95;100661.66;2059652;28;19961;-47
2022/02/25 03:53:52;;;;;;;;;;;;;;;17.31;58.01;100666.09;2051644;28;19918;-48
2022/02/25 03:54:52;;;;;;;;;;;;;;;17.29;57.82;100660.75;2051055;28;20044;-48
2022/02/25 03:55:53;;;;;;;;;;;;;;;17.29;57.95;100662.63;2060108;28;19960;-48
2022/02/25 03:56:53;;;;;;;;;;;;;;;17.30;57.95;100664.38;2054479;28;19957;-48
2022/02/25 03:57:53;;;;;;;;;;;;;;;17.28;57.71;100663.63;2063692;28;19913;-49
2022/02/25 03:58:53;;;;;;;;;;;;;;;17.27;57.96;100667.31;2059970;28;19925;-47
2022/02/25 03:59:54;;;;;;;;;;;;;;;17.28;57.75;100669.06;2057795;28;19918;-47
2022/02/25 04:00:54;;;;;;;;;;;;;;;17.26;58.13;100661.00;2053762;28;20671;-46
2022/02/25 04:01:55;;;;;;;;;;;;;;;17.27;57.96;100664.59;2054839;28;19917;-47
2022/02/25 04:02:56;;;;;;;;;;;;;;;17.26;58.11;100671.06;2066433;28;19929;-51
2022/02/25 04:03:57;;;;;;;;;;;;;;;17.26;57.72;100671.06;2057623;28;19940;-47
2022/02/25 04:04:57;;;;;;;;;;;;;;;17.25;58.12;100672.91;2059079;28;20595;-47
2022/02/25 04:05:57;;;;;;;;;;;;;;;17.25;57.99;100674.78;2058602;28;19917;-47
2022/02/25 04:06:58;;;;;;;;;;;;;;;17.24;57.91;100676.63;2055655;28;19952;-47
2022/02/25 04:07:58;;;;;;;;;;;;;;;17.25;57.99;100680.22;2056900;28;20304;-47
2022/02/25 04:08:59;;;;;;;;;;;;;;;17.24;58.16;100673.03;2058334;28;21039;-47
2022/02/25 04:09:59;;;;;;;;;;;;;;;17.24;57.91;100678.47;2058395;28;19910;-47
2022/02/25 04:11:00;;;;;;;;;;;;;;;17.23;58.01;100674.91;2058086;28;19913;-47
2022/02/25 04:12:02;;;;;;;;;;;;;;;17.23;58.06;100680.34;2059191;28;19910;-47
2022/02/25 04:13:04;;;;;;;;;;;;;;;17.23;58.09;100682.22;2057155;28;20279;-47
2022/02/25 04:14:05;;;;;;;;;;;;;;;17.23;57.94;100679.47;2057010;28;19918;-47
2022/02/25 04:15:05;;;;;;;;;;;;;;;17.22;57.88;100684.06;2057494;28;19921;-48
2022/02/25 04:16:06;;;;;;;;;;;;;;;17.23;57.97;100676.75;2058912;28;19949;-47
2022/02/25 04:17:06;;;;;;;;;;;;;;;17.24;58.15;100678.47;2057038;28;20304;-49
2022/02/25 04:18:07;;;;;;;;;;;;;;;17.24;58.01;100678.47;2057089;28;19949;-47
2022/02/25 04:19:08;;;;;;;;;;;;;;;17.24;58.17;100684.78;2056790;28;20356;-47
2022/02/25 04:20:08;;;;;;;;;;;;;;;17.23;57.98;100677.63;2058479;28;19925;-50
2022/02/25 04:21:08;;;;;;;;;;;;;;;17.23;57.74;100674.03;2058761;28;19921;-47
2022/02/25 04:22:09;;;;;;;;;;;;;;;17.24;58.15;100681.19;2059575;28;19948;-47
2022/02/25 04:23:09;;;;;;;;;;;;;;;17.23;57.97;100671.31;2060294;28;19949;-47
2022/02/25 04:24:09;;;;;;;;;;;;;;;17.22;58.01;100680.47;2056241;28;19953;-48
2022/02/25 04:25:10;;;;;;;;;;;;;;;17.22;57.90;100683.19;2056977;28;19928;-46
2022/02/25 04:26:10;;;;;;;;;;;;;;;17.21;57.92;100679.59;2058262;28;19923;-48
2022/02/25 04:27:10;;;;;;;;;;;;;;;17.21;57.93;100684.19;2056206;28;19914;-48
2022/02/25 04:28:11;;;;;;;;;;;;;;;17.21;58.03;100686.91;2059749;28;20316;-48
2022/02/25 04:29:12;;;;;;;;;;;;;;;17.20;58.23;100683.31;2059440;28;19963;-48
2022/02/25 04:30:13;;;;;;;;;;;;;;;17.20;58.09;100687.88;2056816;28;20056;-47
2022/02/25 04:31:13;;;;;;;;;;;;;;;17.20;58.08;100687.88;2058118;28;20339;-49
2022/02/25 04:32:13;;;;;;;;;;;;;;;17.19;58.04;100689.75;2059424;28;19921;-47
2022/02/25 04:33:13;;;;;;;;;;;;;;;17.19;58.10;100686.16;2057955;28;20311;-50
2022/02/25 04:34:14;;;;;;;;;;;;;;;17.18;57.97;100684.44;2057508;28;19991;-48
2022/02/25 04:35:15;;;;;;;;;;;;;;;17.19;58.05;100691.59;2058972;28;19921;-48
2022/02/25 04:36:15;;;;;;;;;;;;;;;17.18;57.80;100685.28;2058020;28;20489;-48
2022/02/25 04:37:15;;;;;;;;;;;;;;;17.19;57.96;100686.16;2059050;28;20143;-48
2022/02/25 04:38:15;;;;;;;;;;;;;;;17.19;57.93;100688.88;2056751;28;20691;-48
2022/02/25 04:39:16;;;;;;;;;;;;;;;17.18;57.95;100688.03;2056920;28;20155;-48
2022/02/25 04:40:17;;;;;;;;;;;;;;;17.18;57.98;100689.88;2059905;28;20532;-47
2022/02/25 04:41:17;;;;;;;;;;;;;;;17.19;57.96;100694.34;2056090;28;19917;-49
2022/02/25 04:42:18;;;;;;;;;;;;;;;17.18;58.01;100685.28;2057480;28;20151;-48
2022/02/25 04:43:18;;;;;;;;;;;;;;;17.19;58.20;100691.59;2058701;28;20167;-48
2022/02/25 04:44:19;;;;;;;;;;;;;;;17.18;58.06;100690.75;2056848;28;20004;-47
2022/02/25 04:45:19;;;;;;;;;;;;;;;17.19;58.01;100691.59;2059360;28;20427;-48
2022/02/25 04:46:21;;;;;;;;;;;;;;;17.19;57.86;100691.59;2055652;28;19918;-48
2022/02/25 04:47:21;;;;;;;;;;;;;;;17.19;57.84;100691.59;2057062;28;20038;-47
2022/02/25 04:48:22;;;;;;;;;;;;;;;17.19;57.76;100687.03;2049735;28;19922;-47
2022/02/25 04:49:22;;;;;;;;;;;;;;;17.19;57.66;100687.03;2050563;28;20511;-47
2022/02/25 04:50:23;;;;;;;;;;;;;;;17.21;57.94;100684.19;2056841;28;19932;-48
2022/02/25 04:51:23;;;;;;;;;;;;;;;17.21;57.87;100687.78;2059389;28;19921;-48
2022/02/25 04:52:24;;;;;;;;;;;;;;;17.21;57.70;100695.94;2056903;28;19921;-48
2022/02/25 04:53:24;;;;;;;;;;;;;;;17.22;57.78;100696.81;2058409;28;19921;-48
2022/02/25 04:54:25;;;;;;;;;;;;;;;17.23;57.72;100704.00;2057748;28;19922;-47
2022/02/25 04:55:25;;;;;;;;;;;;;;;17.24;57.81;100698.41;2055857;28;19968;-47
2022/02/25 04:56:25;;;;;;;;;;;;;;;17.24;57.92;100700.28;2057813;28;19925;-47
2022/02/25 04:57:26;;;;;;;;;;;;;;;17.24;57.96;100703.00;2052174;28;19929;-49
2022/02/25 04:58:26;;;;;;;;;;;;;;;17.24;57.73;100705.72;2054325;28;19933;-48
2022/02/25 04:59:27;;;;;;;;;;;;;;;17.24;57.91;100706.59;2058871;28;19936;-46
2022/02/25 05:00:28;;;;;;;;;;;;;;;17.24;57.77;100711.16;2049502;28;19925;-47
2022/02/25 05:01:28;;;;;;;;;;;;;;;17.24;57.85;100717.47;2050044;28;20423;-50
2022/02/25 05:02:28;;;;;;;;;;;;;;;17.24;57.99;100713.91;2057008;28;19930;-48
2022/02/25 05:03:29;;;;;;;;;;;;;;;17.24;57.68;100711.16;2059224;28;19961;-47
2022/02/25 05:04:29;;;;;;;;;;;;;;;17.24;57.93;100716.63;2056715;28;19933;-47
2022/02/25 05:05:29;;;;;;;;;;;;;;;17.23;57.89;100714.91;2059830;28;19991;-48
2022/02/25 05:06:30;;;;;;;;;;;;;;;17.22;58.04;100713.16;2058346;28;22475;-48
2022/02/25 05:07:30;;;;;;;;;;;;;;;17.23;57.80;100720.34;2055099;28;20363;-47
2022/02/25 05:08:30;;;;;;;;;;;;;;;17.22;57.92;100715.88;2057040;28;20040;-48
2022/02/25 05:09:31;;;;;;;;;;;;;;;17.23;57.77;100720.34;2057277;28;20364;-47
2022/02/25 05:10:32;;;;;;;;;;;;;;;17.22;57.92;100713.16;2059034;28;20042;-48
2022/02/25 05:11:32;;;;;;;;;;;;;;;17.23;57.92;100715.75;2055294;28;19929;-48
2022/02/25 05:12:32;;;;;;;;;;;;;;;17.24;57.93;100722.06;2059598;28;20813;-48